Time;durP1;ratioP1;P1;durP2;ratioP2;P2;SDS_P1;SDS_P2;PMS_P1;PMS_P2;Temp;Humidity;BMP_temperature;BMP_pressure;BME280_temperature;BME280_humidity;BME280_pressure;Samples;Min_cycle;Max_cycle;Signal;HPM_P1;HPM_P2
2022/02/18 00:00:54;;;;;;;8.98;4.40;;;;;;;5.08;98.12;143510.78;1697434;83;21038;-58
2022/02/18 00:03:22;;;;;;;10.08;4.95;;;;;;;5.07;98.36;143508.31;1726484;82;21058;-57
2022/02/18 00:05:49;;;;;;;10.15;4.22;;;;;;;5.08;98.65;143510.78;1697484;83;21027;-57
2022/02/18 00:08:16;;;;;;;8.35;4.00;;;;;;;5.05;98.83;143504.53;1726309;82;21103;-60
2022/02/18 00:10:44;;;;;;;8.93;3.70;;;;;;;5.03;99.20;143498.30;1697213;83;21424;-59
2022/02/18 00:13:12;;;;;;;10.90;3.87;;;;;;;4.99;99.60;143489.58;1726376;82;21525;-60
2022/02/18 00:15:40;;;;;;;6.53;3.40;;;;;;;4.97;99.75;143485.81;1697145;84;21054;-60
2022/02/18 00:18:07;;;;;;;6.25;3.17;;;;;;;5.02;99.90;143495.81;1726175;82;21011;-57
2022/02/18 00:20:35;;;;;;;7.95;4.00;;;;;;;5.05;100.00;143503.30;1697433;84;21066;-58
2022/02/18 00:23:05;;;;;;;6.85;3.60;;;;;;;5.04;100.00;143500.78;1726107;82;21042;-60
2022/02/18 00:25:34;;;;;;;7.28;3.65;;;;;;;5.00;100.00;143492.06;1696008;84;21019;-58
2022/02/18 00:28:03;;;;;;;10.38;4.40;;;;;;;4.99;100.00;143490.81;1726440;82;21062;-58
2022/02/18 00:30:30;;;;;;;8.58;4.22;;;;;;;5.00;100.00;143493.30;1697156;83;21074;-57
2022/02/18 00:32:58;;;;;;;13.85;4.87;;;;;;;5.02;100.00;143497.06;1718249;82;21036;-59
2022/02/18 00:35:25;;;;;;;8.45;4.05;;;;;;;5.04;100.00;143500.78;1700555;84;21137;-58
2022/02/18 00:37:56;;;;;;;7.97;3.92;;;;;;;5.05;100.00;143504.53;1700558;84;21522;-59
2022/02/18 00:40:25;;;;;;;8.63;4.15;;;;;;;5.06;100.00;143505.78;1700863;84;21602;-59
2022/02/18 00:42:54;;;;;;;9.60;4.05;;;;;;;5.07;100.00;143509.55;1700754;84;21028;-58
2022/02/18 00:45:22;;;;;;;7.75;3.85;;;;;;;5.07;100.00;143508.31;1700352;83;21048;-58
2022/02/18 00:47:50;;;;;;;9.40;3.80;;;;;;;5.06;100.00;143505.78;1700499;83;21131;-58
2022/02/18 00:50:18;;;;;;;8.00;3.70;;;;;;;5.06;100.00;143507.02;1700600;83;21016;-62
2022/02/18 00:52:46;;;;;;;8.80;4.03;;;;;;;5.09;100.00;143514.55;1700394;84;21012;-58
2022/02/18 00:55:15;;;;;;;7.22;3.60;;;;;;;5.10;100.00;143517.02;1700338;84;21068;-59
2022/02/18 00:57:43;;;;;;;7.95;3.83;;;;;;;5.14;100.00;143527.03;1700411;83;21185;-58
2022/02/18 01:00:13;;;;;;;8.80;3.65;;;;;;;5.15;100.00;143528.27;1700600;83;21072;-58
2022/02/18 01:02:40;;;;;;;9.28;3.37;;;;;;;5.14;100.00;143525.75;1700743;83;21079;-58
2022/02/18 01:05:09;;;;;;;9.38;4.03;;;;;;;5.11;100.00;143518.27;1700393;83;21040;-59
2022/02/18 01:07:36;;;;;;;7.58;4.33;;;;;;;5.12;100.00;143520.78;1700663;83;21059;-60
2022/02/18 01:10:06;;;;;;;9.10;3.00;;;;;;;5.15;100.00;143528.27;1700409;84;21044;-58
2022/02/18 01:12:37;;;;;;;6.72;3.00;;;;;;;5.17;100.00;143533.27;1700389;84;21541;-61
2022/02/18 01:15:06;;;;;;;7.45;2.90;;;;;;;5.19;100.00;143538.22;1700410;83;21395;-60
2022/02/18 01:17:34;;;;;;;4.95;2.92;;;;;;;5.19;100.00;143538.22;1700359;83;21518;-59
2022/02/18 01:20:04;;;;;;;6.37;3.10;;;;;;;5.16;100.00;143530.75;1700617;84;21060;-59
2022/02/18 01:22:31;;;;;;;7.12;3.40;;;;;;;5.12;100.00;143520.78;1700675;84;21035;-57
2022/02/18 01:24:58;;;;;;;6.65;3.10;;;;;;;5.11;100.00;143518.27;1700584;84;21043;-58
2022/02/18 01:27:24;;;;;;;5.55;3.08;;;;;;;5.12;100.00;143520.78;1700574;83;21672;-58
2022/02/18 01:29:51;;;;;;;6.40;3.35;;;;;;;5.15;100.00;143529.50;1700703;84;21020;-60
2022/02/18 01:32:18;;;;;;;11.05;2.90;;;;;;;5.19;100.00;143538.22;1700325;83;21154;-59
2022/02/18 01:34:45;;;;;;;7.00;2.90;;;;;;;5.19;100.00;143538.22;1726412;83;21086;-59
2022/02/18 01:37:13;;;;;;;8.45;3.55;;;;;;;5.13;100.00;143523.27;1696957;83;21066;-57
2022/02/18 01:39:40;;;;;;;5.17;2.52;;;;;;;5.08;100.00;143512.02;1726123;83;21051;-60
2022/02/18 01:42:07;;;;;;;5.00;2.30;;;;;;;5.05;100.00;143503.30;1697345;83;21524;-60
2022/02/18 01:44:39;;;;;;;4.45;2.10;;;;;;;4.94;100.00;143478.33;1726355;83;21135;-58
2022/02/18 01:47:15;;;;;;;5.00;2.37;;;;;;;4.93;100.00;143475.81;1695786;83;21015;-57
2022/02/18 01:49:45;;;;;;;4.67;2.17;;;;;;;4.90;100.00;143467.09;1725763;82;21082;-57
2022/02/18 01:52:12;;;;;;;5.80;2.30;;;;;;;4.82;100.00;143448.36;1697602;83;21493;-60
2022/02/18 01:54:39;;;;;;;6.15;1.85;;;;;;;4.76;100.00;143433.41;1726164;82;21046;-57
2022/02/18 01:57:08;;;;;;;5.12;2.08;;;;;;;4.69;100.00;143417.16;1697393;83;21019;-59
2022/02/18 01:59:35;;;;;;;3.65;2.10;;;;;;;4.67;100.00;143412.16;1726230;82;21035;-59
2022/02/18 02:02:03;;;;;;;4.85;2.02;;;;;;;4.61;100.00;143395.97;1697122;83;21110;-59
2022/02/18 02:04:32;;;;;;;4.10;2.02;;;;;;;4.52;100.00;143374.72;1726143;83;21039;-58
2022/02/18 02:07:03;;;;;;;3.95;1.65;;;;;;;4.45;100.00;143358.53;1697089;84;21659;-59
2022/02/18 02:09:33;;;;;;;3.60;1.90;;;;;;;4.39;100.00;143342.28;1726046;82;21027;-59
2022/02/18 02:12:01;;;;;;;3.22;1.72;;;;;;;4.32;100.00;143326.05;1697118;83;21109;-59
2022/02/18 02:14:29;;;;;;;2.92;1.60;;;;;;;4.30;100.00;143321.05;1699800;83;21034;-60
2022/02/18 02:16:56;;;;;;;3.42;1.80;;;;;;;4.26;100.00;143312.33;1697316;83;21026;-59
2022/02/18 02:19:24;;;;;;;2.47;1.55;;;;;;;4.20;100.00;143296.09;1726109;82;21066;-58
2022/02/18 02:21:54;;;;;;;3.40;1.50;;;;;;;4.09;100.00;143271.16;1697409;83;21082;-58
2022/02/18 02:24:22;;;;;;;2.87;1.37;;;;;;;4.05;100.00;143261.19;1726055;82;21078;-61
2022/02/18 02:26:49;;;;;;;3.58;1.77;;;;;;;4.03;100.00;143256.20;1697377;83;21564;-60
2022/02/18 02:29:16;;;;;;;4.08;1.70;;;;;;;3.97;100.00;143239.97;1726055;82;21034;-58
2022/02/18 02:31:46;;;;;;;2.33;1.20;;;;;;;3.85;100.00;143211.31;1697160;83;21059;-59
2022/02/18 02:34:13;;;;;;;2.10;1.02;;;;;;;3.71;100.00;143177.61;1725973;83;21544;-60
2022/02/18 02:36:42;;;;;;;2.00;1.10;;;;;;;3.62;100.00;143156.44;1697306;84;21070;-57
2022/02/18 02:39:10;;;;;;;2.10;1.17;;;;;;;3.54;100.00;143135.25;1726179;82;21071;-59
2022/02/18 02:41:38;;;;;;;2.90;1.30;;;;;;;3.46;100.00;143116.50;1671513;84;21029;-59
2022/02/18 02:44:06;;;;;;;3.27;1.20;;;;;;;3.36;100.00;143092.84;1726049;82;21051;-60
2022/02/18 02:46:37;;;;;;;2.85;1.30;;;;;;;3.31;100.00;143079.09;1697287;83;21087;-58
2022/02/18 02:49:06;;;;;;;2.50;1.22;;;;;;;3.28;100.00;143071.63;1725612;82;21536;-60
2022/02/18 02:51:34;;;;;;;3.45;1.55;;;;;;;3.25;100.00;143066.64;1696721;83;21117;-58
2022/02/18 02:54:01;;;;;;;2.55;1.17;;;;;;;3.18;100.00;143049.22;1726403;82;21489;-60
2022/02/18 02:56:30;;;;;;;2.77;1.20;;;;;;;3.14;100.00;143038.00;1697269;83;21585;-57
2022/02/18 02:58:57;;;;;;;3.12;1.10;;;;;;;3.13;100.00;143035.47;1726258;82;21508;-58
2022/02/18 03:01:32;;;;;;;2.98;1.12;;;;;;;3.10;100.00;143029.25;1696902;83;21159;-58
2022/02/18 03:04:00;;;;;;;1.75;1.10;;;;;;;3.09;100.00;143026.78;1726219;82;21011;-59
2022/02/18 03:06:27;;;;;;;2.65;1.32;;;;;;;3.08;100.00;143024.30;1697448;83;21035;-60
2022/02/18 03:08:56;;;;;;;3.27;1.30;;;;;;;3.02;100.00;143010.55;1726417;82;21038;-58
2022/02/18 03:11:30;;;;;;;2.87;1.52;;;;;;;3.03;100.00;143011.83;1694582;84;21055;-57
2022/02/18 03:14:05;;;;;;;3.72;1.70;;;;;;;3.03;100.00;143011.83;1723965;82;21059;-60
2022/02/18 03:16:34;;;;;;;5.05;1.55;;;;;;;3.02;100.00;143009.31;1697267;83;21019;-59
2022/02/18 03:19:02;;;;;;;3.05;1.50;;;;;;;2.97;100.00;142996.84;1726192;82;21031;-61
2022/02/18 03:21:29;;;;;;;3.98;1.60;;;;;;;2.93;100.00;142988.16;1697345;83;21555;-58
2022/02/18 03:23:55;;;;;;;2.45;1.40;;;;;;;2.91;100.00;142983.16;1726430;82;21047;-58
2022/02/18 03:26:23;;;;;;;4.15;1.42;;;;;;;2.91;100.00;142981.92;1697263;83;21007;-60
2022/02/18 03:28:51;;;;;;;3.02;1.52;;;;;;;2.90;100.00;142979.41;1724491;82;21063;-60
2022/02/18 03:31:37;;;;;;;2.75;1.50;;;;;;;2.87;100.00;142973.17;1697207;83;21014;-59
2022/02/18 03:34:04;;;;;;;2.17;1.20;;;;;;;2.77;100.00;142948.25;1716097;82;21569;-58
2022/02/18 03:36:31;;;;;;;3.55;1.40;;;;;;;2.71;100.00;142933.31;1700430;83;21044;-58
2022/02/18 03:39:00;;;;;;;3.45;1.30;;;;;;;2.63;100.00;142914.63;1700692;84;21020;-60
2022/02/18 03:41:30;;;;;;;2.85;1.40;;;;;;;2.57;100.00;142900.94;1700454;84;21080;-58
2022/02/18 03:43:57;;;;;;;3.37;1.50;;;;;;;2.54;100.00;142893.42;1700652;83;21549;-60
2022/02/18 03:46:26;;;;;;;2.95;1.40;;;;;;;2.49;100.00;142880.97;1700243;84;21060;-60
2022/02/18 03:48:54;;;;;;;2.83;1.45;;;;;;;2.43;100.00;142866.03;1700719;84;21064;-58
2022/02/18 03:51:21;;;;;;;3.58;1.55;;;;;;;2.39;100.00;142857.33;1700529;84;21056;-58
2022/02/18 03:53:49;;;;;;;2.95;1.57;;;;;;;2.37;100.00;142852.34;1700445;84;21048;-60
2022/02/18 03:56:18;;;;;;;3.37;1.82;;;;;;;2.37;100.00;142852.34;1700447;84;21001;-58
2022/02/18 03:58:47;;;;;;;2.55;1.47;;;;;;;2.31;100.00;142837.36;1700748;83;21063;-59
2022/02/18 04:01:14;;;;;;;4.58;1.35;;;;;;;2.30;100.00;142833.66;1700634;83;21016;-60
2022/02/18 04:03:43;;;;;;;3.25;1.40;;;;;;;2.26;100.00;142824.91;1700619;84;21024;-59
2022/02/18 04:06:16;;;;;;;4.08;1.65;;;;;;;2.25;100.00;142822.44;1700632;83;21208;-59
2022/02/18 04:08:46;;;;;;;3.75;1.62;;;;;;;2.23;100.00;142817.45;1705034;83;21036;-61
2022/02/18 04:11:14;;;;;;;3.08;1.40;;;;;;;2.19;100.00;142807.52;1698512;84;21649;-58
2022/02/18 04:13:41;;;;;;;3.70;1.77;;;;;;;2.16;100.00;142800.00;1700609;83;21060;-58
2022/02/18 04:16:08;;;;;;;3.77;1.80;;;;;;;2.14;100.00;142796.30;1700357;83;21052;-59
2022/02/18 04:18:36;;;;;;;4.37;1.75;;;;;;;2.14;100.00;142795.06;1700628;83;21056;-58
2022/02/18 04:21:03;;;;;;;4.33;1.80;;;;;;;2.14;100.00;142796.30;1700639;84;21012;-60
2022/02/18 04:23:37;;;;;;;3.02;1.60;;;;;;;2.15;100.00;142797.53;1699008;84;21023;-60
2022/02/18 04:26:04;;;;;;;3.25;1.67;;;;;;;2.14;100.00;142795.06;1700402;84;21075;-59
2022/02/18 04:28:33;;;;;;;3.08;1.42;;;;;;;2.13;100.00;142792.53;1700642;84;21040;-60
2022/02/18 04:30:59;;;;;;;2.75;1.45;;;;;;;2.14;100.00;142795.06;1700597;83;21017;-60
2022/02/18 04:33:27;;;;;;;3.05;1.55;;;;;;;2.14;100.00;142795.06;1701079;83;21553;-60
2022/02/18 04:35:55;;;;;;;2.42;1.30;;;;;;;2.15;100.00;142798.77;1715822;82;21027;-60
2022/02/18 04:38:22;;;;;;;3.40;1.85;;;;;;;2.14;100.00;142796.30;1706204;84;21063;-60
2022/02/18 04:40:48;;;;;;;2.70;1.50;;;;;;;2.16;100.00;142801.28;1715804;82;21023;-60
2022/02/18 04:43:15;;;;;;;2.55;1.22;;;;;;;2.13;100.00;142792.53;1706123;84;21043;-58
2022/02/18 04:45:41;;;;;;;3.72;1.47;;;;;;;2.11;100.00;142787.55;1715899;82;21031;-59
2022/02/18 04:48:08;;;;;;;3.25;1.57;;;;;;;2.10;100.00;142785.08;1706121;83;21016;-59
2022/02/18 04:50:35;;;;;;;3.17;1.50;;;;;;;2.11;100.00;142787.55;1687185;84;21059;-60
2022/02/18 04:53:02;;;;;;;2.62;1.30;;;;;;;2.14;100.00;142795.06;1706118;84;21017;-60
2022/02/18 04:55:28;;;;;;;4.50;1.60;;;;;;;2.14;100.00;142796.30;1715801;82;21039;-59
2022/02/18 04:57:55;;;;;;;3.27;1.52;;;;;;;2.13;100.00;142792.53;1705987;84;21075;-58
2022/02/18 05:00:22;;;;;;;3.25;1.52;;;;;;;2.13;100.00;142792.53;1715912;82;21458;-58
2022/02/18 05:02:49;;;;;;;3.35;1.55;;;;;;;2.13;100.00;142793.78;1706184;84;21566;-61
2022/02/18 05:05:16;;;;;;;2.37;1.40;;;;;;;2.14;100.00;142796.30;1715924;82;20996;-59
2022/02/18 05:07:43;;;;;;;3.05;1.60;;;;;;;2.15;100.00;142798.77;1705907;83;21040;-58
2022/02/18 05:10:11;;;;;;;2.60;1.60;;;;;;;2.16;100.00;142800.00;1715895;82;21083;-62
2022/02/18 05:12:39;;;;;;;2.20;1.32;;;;;;;2.13;100.00;142792.53;1705857;83;21172;-60
2022/02/18 05:15:07;;;;;;;4.62;1.52;;;;;;;2.07;100.00;142778.86;1715788;82;21079;-59
2022/02/18 05:17:36;;;;;;;3.35;1.40;;;;;;;2.06;100.00;142775.09;1705903;83;21075;-60
2022/02/18 05:20:04;;;;;;;3.45;1.40;;;;;;;2.07;100.00;142778.86;1715896;82;21011;-60
2022/02/18 05:22:31;;;;;;;5.92;1.70;;;;;;;2.09;100.00;142782.61;1706044;84;21035;-58
2022/02/18 05:24:58;;;;;;;3.40;1.82;;;;;;;2.07;100.00;142777.63;1715815;82;20968;-60
2022/02/18 05:27:26;;;;;;;3.80;1.65;;;;;;;2.16;100.00;142801.28;1705870;84;21040;-59
2022/02/18 05:29:53;;;;;;;2.55;1.40;;;;;;;2.26;100.00;142824.91;1715814;82;21498;-60
2022/02/18 05:32:20;;;;;;;2.77;1.30;;;;;;;2.28;100.00;142828.67;1706069;83;21068;-58
2022/02/18 05:34:49;;;;;;;3.42;1.70;;;;;;;2.29;100.00;142832.42;1709931;82;21084;-60
2022/02/18 05:37:16;;;;;;;2.90;1.50;;;;;;;2.29;100.00;142832.42;1700287;84;21091;-58
2022/02/18 05:39:43;;;;;;;4.83;1.70;;;;;;;2.29;100.00;142832.42;1700556;84;21072;-59
2022/02/18 05:42:10;;;;;;;4.47;1.72;;;;;;;2.27;100.00;142826.19;1700505;84;21036;-60
2022/02/18 05:44:36;;;;;;;2.58;1.27;;;;;;;2.28;100.00;142828.67;1700745;84;20968;-60
2022/02/18 05:47:04;;;;;;;3.95;1.75;;;;;;;2.31;100.00;142836.12;1700654;84;21037;-60
2022/02/18 05:49:32;;;;;;;5.20;2.35;;;;;;;2.37;100.00;142852.34;1700600;83;21116;-59
2022/02/18 05:51:59;;;;;;;5.22;1.92;;;;;;;2.44;100.00;142867.27;1700425;84;21100;-58
2022/02/18 05:54:27;;;;;;;4.90;1.55;;;;;;;2.52;100.00;142887.19;1700467;84;21111;-59
2022/02/18 05:56:54;;;;;;;8.80;2.05;;;;;;;2.58;100.00;142903.41;1700440;84;21590;-59
2022/02/18 05:59:21;;;;;;;5.05;1.90;;;;;;;2.65;100.00;142918.38;1700354;83;21051;-60
2022/02/18 06:01:48;;;;;;;6.28;1.87;;;;;;;2.72;100.00;142937.06;1700495;84;21538;-59
2022/02/18 06:04:15;;;;;;;4.85;1.72;;;;;;;2.78;100.00;142952.00;1700353;84;21099;-59
2022/02/18 06:06:44;;;;;;;5.33;2.25;;;;;;;2.88;100.00;142974.45;1700299;84;21025;-58
2022/02/18 06:09:12;;;;;;;4.30;1.98;;;;;;;2.98;100.00;143000.61;1700285;84;21169;-59
2022/02/18 06:11:40;;;;;;;3.35;1.75;;;;;;;3.14;100.00;143039.23;1700522;83;21032;-60
2022/02/18 06:14:07;;;;;;;4.05;1.90;;;;;;;3.33;100.00;143085.34;1700595;83;21028;-60
2022/02/18 06:16:34;;;;;;;4.62;1.90;;;;;;;3.56;100.00;143141.48;1700707;84;21083;-59
2022/02/18 06:19:07;;;;;;;3.85;1.65;;;;;;;3.91;100.00;143226.25;1700535;84;21016;-59
2022/02/18 06:21:34;;;;;;;3.62;1.72;;;;;;;4.12;98.42;143278.67;1705455;83;21040;-59
2022/02/18 06:24:01;;;;;;;2.30;1.30;;;;;;;4.20;96.74;143296.09;1700589;84;21089;-59
2022/02/18 06:26:28;;;;;;;3.83;1.25;;;;;;;4.39;96.08;143342.28;1700546;84;21063;-60
2022/02/18 06:28:55;;;;;;;3.75;1.40;;;;;;;4.58;95.59;143389.72;1700346;84;21095;-59
2022/02/18 06:31:22;;;;;;;2.75;1.20;;;;;;;4.89;92.96;143464.61;1700797;83;21008;-60
2022/02/18 06:33:49;;;;;;;3.72;1.55;;;;;;;5.23;92.19;143548.23;1701110;83;21108;-60
2022/02/18 06:36:16;;;;;;;2.80;1.30;;;;;;;5.58;89.62;143633.17;1726120;82;21042;-59
2022/02/18 06:38:44;;;;;;;2.77;1.50;;;;;;;5.77;88.35;143679.38;1697227;83;21046;-59
2022/02/18 06:41:12;;;;;;;4.03;1.50;;;;;;;6.29;86.93;143806.89;1726440;82;21023;-59
2022/02/18 06:43:40;;;;;;;4.10;1.75;;;;;;;7.24;83.78;144038.19;1697483;83;21030;-59
2022/02/18 06:46:06;;;;;;;2.75;1.20;;;;;;;8.41;80.37;144326.06;1726242;82;21031;-61
2022/02/18 06:48:33;;;;;;;3.25;1.45;;;;;;;9.20;75.67;144517.69;1697254;83;21177;-60
2022/02/18 06:51:00;;;;;;;4.08;1.50;;;;;;;9.29;71.47;144541.50;1726218;82;21077;-59
2022/02/18 06:53:28;;;;;;;4.15;1.55;;;;;;;9.85;70.16;144678.11;1697339;83;21555;-60
2022/02/18 06:55:55;;;;;;;4.60;1.20;;;;;;;10.64;65.84;144871.25;1726437;82;21238;-60
2022/02/18 06:58:21;;;;;;;2.62;1.25;;;;;;;10.84;65.50;144920.19;1697357;84;21050;-59
2022/02/18 07:00:51;;;;;;;3.20;1.37;;;;;;;11.66;64.08;145120.97;1726183;82;21086;-60
2022/02/18 07:03:19;;;;;;;2.77;1.02;;;;;;;13.05;58.87;145462.63;1697185;83;21039;-61
2022/02/18 07:05:48;;;;;;;3.08;1.20;;;;;;;12.77;56.31;145394.80;1726380;82;21019;-61
2022/02/18 07:08:16;;;;;;;3.50;1.30;;;;;;;12.60;56.70;145352.08;1697325;83;21090;-60
2022/02/18 07:10:44;;;;;;;3.37;1.20;;;;;;;12.80;56.02;145402.33;1726318;82;21558;-61
2022/02/18 07:13:12;;;;;;;2.92;1.05;;;;;;;13.44;53.90;145559.47;1697209;83;21043;-59
2022/02/18 07:15:42;;;;;;;2.90;1.27;;;;;;;14.67;52.15;145860.09;1726184;82;21039;-60
2022/02/18 07:18:11;;;;;;;3.17;1.10;;;;;;;15.79;47.46;146137.06;1697281;83;21082;-59
2022/02/18 07:20:38;;;;;;;4.00;1.30;;;;;;;15.91;44.79;146164.81;1726408;82;21516;-59
2022/02/18 07:23:07;;;;;;;5.83;1.25;;;;;;;14.45;47.04;145807.22;1697275;83;21157;-61
2022/02/18 07:25:34;;;;;;;2.70;1.30;;;;;;;13.45;48.97;145560.72;1726665;83;21003;-58
2022/02/18 07:28:01;;;;;;;6.15;1.92;;;;;;;12.69;50.57;145373.42;1697431;83;21030;-59
2022/02/18 07:30:28;;;;;;;4.62;1.30;;;;;;;11.81;52.41;145157.38;1726327;82;21521;-59
2022/02/18 07:32:55;;;;;;;2.87;1.12;;;;;;;11.22;54.35;145014.28;1697175;83;21070;-60
2022/02/18 07:35:23;;;;;;;4.10;1.40;;;;;;;11.86;53.73;145169.94;1714656;83;21052;-59
2022/02/18 07:37:51;;;;;;;5.42;1.32;;;;;;;12.48;51.90;145321.92;1700332;83;21048;-59
2022/02/18 07:40:18;;;;;;;3.42;1.30;;;;;;;12.42;52.05;145306.88;1700441;84;21012;-60
2022/02/18 07:42:44;;;;;;;4.78;1.40;;;;;;;12.48;52.18;145321.92;1700637;84;21032;-59
2022/02/18 07:45:12;;;;;;;5.60;1.45;;;;;;;12.52;51.44;145332.00;1700394;84;21168;-59
2022/02/18 07:47:39;;;;;;;3.08;1.17;;;;;;;12.19;51.77;145251.59;1700594;84;21040;-61
2022/02/18 07:50:07;;;;;;;4.17;2.33;;;;;;;12.44;52.11;145311.84;1700396;84;21119;-58
2022/02/18 07:52:37;;;;;;;5.72;2.22;;;;;;;12.99;50.92;145447.56;1700387;84;21561;-59
2022/02/18 07:55:05;;;;;;;4.92;1.60;;;;;;;13.10;50.02;145473.94;1700402;84;21046;-61
2022/02/18 07:57:33;;;;;;;4.97;1.42;;;;;;;13.10;50.02;145473.94;1700601;84;21176;-58
2022/02/18 08:00:00;;;;;;;5.03;2.02;;;;;;;12.23;51.51;145260.38;1700407;84;21013;-60
2022/02/18 08:02:26;;;;;;;7.10;1.98;;;;;;;11.50;52.87;145082.06;1700352;84;21040;-59
2022/02/18 08:04:55;;;;;;;3.65;1.67;;;;;;;10.61;54.98;144863.75;1700559;84;21542;-58
2022/02/18 08:07:22;;;;;;;3.47;1.40;;;;;;;10.10;56.46;144738.25;1700379;84;21012;-59
2022/02/18 08:09:49;;;;;;;4.80;2.00;;;;;;;9.43;58.13;144574.06;1700383;84;21052;-58
2022/02/18 08:12:15;;;;;;;4.85;1.67;;;;;;;9.04;59.53;144480.11;1700348;84;21080;-59
2022/02/18 08:14:42;;;;;;;3.98;1.80;;;;;;;8.68;60.86;144391.19;1700624;84;21036;-59
2022/02/18 08:17:10;;;;;;;6.87;1.80;;;;;;;8.29;62.14;144294.72;1700344;84;21052;-61
2022/02/18 08:19:37;;;;;;;5.60;1.60;;;;;;;8.25;63.20;144285.97;1700653;83;21013;-58
2022/02/18 08:22:04;;;;;;;5.17;1.92;;;;;;;8.30;63.75;144297.25;1700521;84;21498;-60
2022/02/18 08:24:32;;;;;;;4.37;1.80;;;;;;;7.99;64.24;144222.14;1700615;83;20992;-59
2022/02/18 08:27:01;;;;;;;8.15;2.00;;;;;;;7.69;65.75;144148.30;1700687;84;21028;-59
2022/02/18 08:29:28;;;;;;;5.28;1.90;;;;;;;7.44;66.69;144088.23;1700703;84;21042;-60
2022/02/18 08:31:56;;;;;;;4.67;1.98;;;;;;;7.32;67.26;144058.20;1700442;84;21044;-59
2022/02/18 08:34:23;;;;;;;3.90;1.85;;;;;;;7.00;68.37;143980.67;1700674;83;21044;-60
2022/02/18 08:36:50;;;;;;;3.62;1.57;;;;;;;6.77;69.88;143923.13;1715553;82;21042;-59
2022/02/18 08:39:17;;;;;;;7.55;2.02;;;;;;;6.60;70.42;143881.89;1706194;84;21169;-59
2022/02/18 08:41:44;;;;;;;7.55;2.10;;;;;;;6.51;71.09;143861.91;1715657;82;21043;-59
2022/02/18 08:44:14;;;;;;;4.90;1.92;;;;;;;6.42;71.71;143838.14;1706108;84;21156;-60
2022/02/18 08:46:40;;;;;;;5.50;2.10;;;;;;;6.33;72.38;143816.88;1715898;84;21537;-59
2022/02/18 08:49:07;;;;;;;5.30;2.47;;;;;;;6.23;72.92;143793.16;1706071;84;21087;-59
2022/02/18 08:51:38;;;;;;;4.80;1.75;;;;;;;6.21;73.27;143788.16;1716111;82;21055;-60
2022/02/18 08:54:07;;;;;;;6.58;1.98;;;;;;;6.19;73.82;143783.14;1705736;83;21107;-60
2022/02/18 08:56:35;;;;;;;5.37;1.90;;;;;;;6.38;73.93;143828.13;1715843;82;21171;-59
2022/02/18 08:59:05;;;;;;;3.83;1.90;;;;;;;6.47;73.79;143851.87;1705768;83;21079;-59
2022/02/18 09:01:32;;;;;;;4.17;2.00;;;;;;;6.43;73.37;143841.86;1715814;82;21020;-58
2022/02/18 09:03:59;;;;;;;5.17;1.98;;;;;;;6.24;73.70;143795.64;1706079;84;21549;-59
2022/02/18 09:06:25;;;;;;;4.37;2.00;;;;;;;6.12;74.06;143765.64;1686952;84;21047;-60
2022/02/18 09:08:52;;;;;;;5.55;2.12;;;;;;;6.05;74.73;143748.14;1706090;84;21028;-58
2022/02/18 09:11:19;;;;;;;4.50;2.30;;;;;;;5.87;75.13;143704.36;1715755;82;21016;-59
2022/02/18 09:13:48;;;;;;;5.00;2.25;;;;;;;5.66;76.12;143653.16;1705999;83;21043;-59
2022/02/18 09:16:15;;;;;;;4.92;2.20;;;;;;;5.60;76.53;143638.19;1715619;82;21090;-59
2022/02/18 09:18:45;;;;;;;6.65;2.65;;;;;;;5.57;76.51;143631.94;1686749;84;21055;-60
2022/02/18 09:21:12;;;;;;;5.22;2.25;;;;;;;5.54;76.64;143623.16;1706008;84;21044;-59
2022/02/18 09:23:39;;;;;;;7.60;2.77;;;;;;;5.50;76.88;143614.44;1715774;82;20996;-58
2022/02/18 09:26:05;;;;;;;7.12;2.60;;;;;;;5.48;76.95;143608.19;1706023;84;21103;-60
2022/02/18 09:28:33;;;;;;;6.95;2.30;;;;;;;5.53;77.68;143620.69;1715872;82;21005;-60
2022/02/18 09:31:00;;;;;;;6.35;2.27;;;;;;;5.69;77.49;143660.64;1705872;83;21020;-60
2022/02/18 09:33:29;;;;;;;6.97;2.77;;;;;;;5.88;76.64;143708.13;1715767;84;21040;-59
2022/02/18 09:35:56;;;;;;;5.78;2.30;;;;;;;6.04;76.10;143745.66;1706009;83;21040;-61
2022/02/18 09:38:23;;;;;;;5.78;2.50;;;;;;;6.24;75.66;143794.41;1715596;82;21038;-60
2022/02/18 09:40:50;;;;;;;6.33;2.70;;;;;;;6.34;75.68;143818.16;1706107;84;21490;-60
2022/02/18 09:43:20;;;;;;;5.65;2.30;;;;;;;6.48;74.57;143853.13;1715490;82;21079;-60
2022/02/18 09:45:47;;;;;;;6.75;2.22;;;;;;;6.60;73.80;143883.13;1706050;83;21016;-61
2022/02/18 09:48:15;;;;;;;4.80;2.40;;;;;;;6.64;73.46;143893.16;1715008;84;21565;-61
2022/02/18 09:50:42;;;;;;;6.78;2.70;;;;;;;6.72;73.66;143911.91;1705855;84;21036;-60
2022/02/18 09:53:10;;;;;;;5.55;2.30;;;;;;;6.77;73.41;143923.13;1715824;82;21055;-61
2022/02/18 09:55:39;;;;;;;5.97;2.47;;;;;;;6.85;72.63;143943.16;1705924;83;21012;-58
2022/02/18 09:58:07;;;;;;;4.20;2.35;;;;;;;6.82;72.30;143935.63;1715744;82;21470;-60
2022/02/18 10:00:36;;;;;;;4.70;2.45;;;;;;;6.77;72.24;143923.13;1706184;84;21023;-60
2022/02/18 10:03:03;;;;;;;5.45;2.47;;;;;;;6.73;72.48;143915.63;1715740;82;21518;-60
2022/02/18 10:05:31;;;;;;;4.60;2.12;;;;;;;6.64;72.50;143893.16;1705839;83;21039;-60
2022/02/18 10:08:15;;;;;;;6.05;2.55;;;;;;;6.48;72.74;143853.13;1715543;82;21127;-59
2022/02/18 10:11:04;;;;;;;4.70;1.75;;;;;;;6.49;73.14;143855.66;1687128;84;21019;-58
2022/02/18 10:13:40;;;;;;;9.28;2.55;;;;;;;6.58;71.95;143878.13;1706169;84;21044;-58
2022/02/18 10:16:18;;;;;;;4.20;2.02;;;;;;;6.61;71.09;143885.61;1715318;83;21027;-59
2022/02/18 10:18:58;;;;;;;5.00;2.10;;;;;;;6.50;70.72;143859.38;1701245;84;21541;-58
2022/02/18 10:21:35;;;;;;;5.10;2.42;;;;;;;6.45;70.78;143845.63;1715928;82;21062;-60
2022/02/18 10:24:13;;;;;;;5.42;2.37;;;;;;;6.53;71.14;143865.63;1687338;84;21035;-61
2022/02/18 10:26:49;;;;;;;6.03;2.15;;;;;;;6.65;71.04;143895.63;1705799;83;21071;-60
2022/02/18 10:29:25;;;;;;;4.60;2.20;;;;;;;6.87;70.84;143948.12;1715554;82;21541;-60
2022/02/18 10:32:14;;;;;;;6.33;2.37;;;;;;;7.12;70.10;144009.41;1687130;84;21493;-59
2022/02/18 10:35:04;;;;;;;5.80;2.40;;;;;;;7.29;69.12;144050.70;1704873;84;21035;-61
2022/02/18 10:37:35;;;;;;;5.85;2.30;;;;;;;7.24;69.09;144039.44;1672216;84;21051;-59
2022/02/18 10:40:10;;;;;;;4.70;2.20;;;;;;;7.11;69.21;144008.17;1706293;84;21163;-59
2022/02/18 10:42:40;;;;;;;4.67;2.20;;;;;;;7.01;69.73;143981.91;1715737;82;21550;-60
2022/02/18 10:45:23;;;;;;;4.62;1.92;;;;;;;6.98;69.89;143974.42;1706021;84;21060;-60
2022/02/18 10:48:07;;;;;;;6.15;2.27;;;;;;;6.81;69.84;143933.14;1685237;84;21498;-60
2022/02/18 10:50:34;;;;;;;4.22;1.65;;;;;;;6.48;70.48;143853.13;1705633;84;21047;-59
2022/02/18 10:53:20;;;;;;;4.45;1.90;;;;;;;6.24;71.16;143795.64;1715766;84;21101;-59
2022/02/18 10:55:51;;;;;;;6.47;2.20;;;;;;;6.13;72.18;143768.17;1687092;85;21512;-59
2022/02/18 10:58:35;;;;;;;4.60;2.02;;;;;;;6.08;73.42;143755.62;1706007;83;21052;-59
2022/02/18 11:01:24;;;;;;;4.20;1.80;;;;;;;5.99;75.33;143733.16;1688451;84;21047;-59
2022/02/18 11:04:01;;;;;;;4.37;1.80;;;;;;;5.91;78.18;143714.38;1715966;82;21525;-61
2022/02/18 11:06:36;;;;;;;2.77;1.45;;;;;;;5.59;81.00;143636.89;1693407;83;21123;-61
2022/02/18 11:09:11;;;;;;;3.77;1.50;;;;;;;5.35;83.06;143578.22;1692158;82;21043;-59
2022/02/18 11:11:46;;;;;;;3.40;1.30;;;;;;;5.31;84.03;143566.97;1697661;84;21071;-60
2022/02/18 11:14:18;;;;;;;2.47;1.20;;;;;;;5.30;84.59;143565.72;1685765;84;21144;-60
2022/02/18 11:16:57;;;;;;;2.62;1.27;;;;;;;5.42;84.86;143595.70;1705967;84;21044;-60
2022/02/18 11:19:20;;;;;;;3.75;1.52;;;;;;;5.62;85.00;143643.14;1713795;82;21051;-60
2022/02/18 11:21:47;;;;;;;3.05;1.47;;;;;;;5.81;84.82;143689.37;1705890;84;21043;-61
2022/02/18 11:24:17;;;;;;;5.40;1.62;;;;;;;6.01;84.46;143738.17;1704141;82;21003;-60
2022/02/18 11:26:44;;;;;;;4.08;1.85;;;;;;;6.17;84.29;143778.13;1677413;85;21102;-59
2022/02/18 11:29:13;;;;;;;3.50;1.70;;;;;;;6.25;83.88;143798.13;1686117;85;21543;-60
2022/02/18 11:31:45;;;;;;;6.15;2.77;;;;;;;6.31;83.32;143811.91;1687149;84;21008;-59
2022/02/18 11:34:44;;;;;;;5.47;2.10;;;;;;;6.23;82.99;143793.16;1687360;84;21019;-60
2022/02/18 11:37:46;;;;;;;4.22;1.82;;;;;;;6.35;83.40;143820.64;1679129;84;21013;-60